sensor_id;sensor_type;location;lat;lon;timestamp;P1;durP1;ratioP1;P2;durP2;ratioP2
5014;SDS011;2526;51.060;4.228;2023-02-23T00:00:07;48.80;;;33.80;;
5014;SDS011;2526;51.060;4.228;2023-02-23T00:02:45;54.75;;;34.83;;
5014;SDS011;2526;51.060;4.228;2023-02-23T00:05:11;39.72;;;29.23;;
5014;SDS011;2526;51.060;4.228;2023-02-23T00:07:36;47.72;;;34.92;;
5014;SDS011;2526;51.060;4.228;2023-02-23T00:10:02;57.38;;;33.58;;
5014;SDS011;2526;51.060;4.228;2023-02-23T00:12:27;46.58;;;30.15;;
5014;SDS011;2526;51.060;4.228;2023-02-23T00:14:53;59.40;;;36.35;;
5014;SDS011;2526;51.060;4.228;2023-02-23T00:17:19;51.28;;;34.85;;
5014;SDS011;2526;51.060;4.228;2023-02-23T00:19:46;59.45;;;34.33;;
5014;SDS011;2526;51.060;4.228;2023-02-23T00:22:11;49.83;;;31.27;;
5014;SDS011;2526;51.060;4.228;2023-02-23T00:24:37;49.33;;;30.27;;
5014;SDS011;2526;51.060;4.228;2023-02-23T00:27:03;58.17;;;34.35;;
5014;SDS011;2526;51.060;4.228;2023-02-23T00:29:30;58.83;;;38.55;;
5014;SDS011;2526;51.060;4.228;2023-02-23T00:32:02;55.22;;;34.80;;
5014;SDS011;2526;51.060;4.228;2023-02-23T00:34:28;52.92;;;32.55;;
5014;SDS011;2526;51.060;4.228;2023-02-23T00:36:53;54.58;;;32.90;;
5014;SDS011;2526;51.060;4.228;2023-02-23T00:39:20;58.38;;;34.55;;
5014;SDS011;2526;51.060;4.228;2023-02-23T00:41:48;50.20;;;34.45;;
5014;SDS011;2526;51.060;4.228;2023-02-23T00:44:13;61.83;;;36.58;;
5014;SDS011;2526;51.060;4.228;2023-02-23T00:46:39;59.15;;;34.67;;
5014;SDS011;2526;51.060;4.228;2023-02-23T00:49:06;52.15;;;34.30;;
5014;SDS011;2526;51.060;4.228;2023-02-23T00:51:31;53.33;;;33.20;;
5014;SDS011;2526;51.060;4.228;2023-02-23T00:53:57;50.58;;;31.13;;
5014;SDS011;2526;51.060;4.228;2023-02-23T00:56:23;46.80;;;30.45;;
5014;SDS011;2526;51.060;4.228;2023-02-23T00:58:49;58.00;;;32.53;;
5014;SDS011;2526;51.060;4.228;2023-02-23T01:01:15;58.05;;;32.90;;
5014;SDS011;2526;51.060;4.228;2023-02-23T01:03:41;74.00;;;35.28;;
5014;SDS011;2526;51.060;4.228;2023-02-23T01:06:08;48.22;;;28.30;;
5014;SDS011;2526;51.060;4.228;2023-02-23T01:08:36;46.08;;;29.70;;
5014;SDS011;2526;51.060;4.228;2023-02-23T01:11:13;53.50;;;29.98;;
5014;SDS011;2526;51.060;4.228;2023-02-23T01:13:40;59.35;;;30.00;;
5014;SDS011;2526;51.060;4.228;2023-02-23T01:16:06;42.17;;;29.73;;
5014;SDS011;2526;51.060;4.228;2023-02-23T01:18:32;47.83;;;26.85;;
5014;SDS011;2526;51.060;4.228;2023-02-23T01:20:59;49.75;;;31.98;;
5014;SDS011;2526;51.060;4.228;2023-02-23T01:23:24;51.70;;;31.02;;
5014;SDS011;2526;51.060;4.228;2023-02-23T01:25:50;45.53;;;26.17;;
5014;SDS011;2526;51.060;4.228;2023-02-23T01:28:15;57.85;;;31.30;;
5014;SDS011;2526;51.060;4.228;2023-02-23T01:30:41;46.78;;;27.00;;
5014;SDS011;2526;51.060;4.228;2023-02-23T01:33:06;47.50;;;26.83;;
5014;SDS011;2526;51.060;4.228;2023-02-23T01:35:32;44.22;;;26.98;;
5014;SDS011;2526;51.060;4.228;2023-02-23T01:37:57;45.40;;;27.13;;
5014;SDS011;2526;51.060;4.228;2023-02-23T01:40:23;57.13;;;28.92;;
5014;SDS011;2526;51.060;4.228;2023-02-23T01:47:47;50.70;;;28.38;;
5014;SDS011;2526;51.060;4.228;2023-02-23T01:50:13;49.10;;;30.00;;
5014;SDS011;2526;51.060;4.228;2023-02-23T01:52:42;53.60;;;27.90;;
5014;SDS011;2526;51.060;4.228;2023-02-23T01:55:07;60.25;;;27.08;;
5014;SDS011;2526;51.060;4.228;2023-02-23T01:57:37;60.35;;;31.42;;
5014;SDS011;2526;51.060;4.228;2023-02-23T02:00:03;52.83;;;29.08;;
5014;SDS011;2526;51.060;4.228;2023-02-23T02:02:37;52.17;;;28.15;;
5014;SDS011;2526;51.060;4.228;2023-02-23T02:05:02;50.08;;;26.63;;
5014;SDS011;2526;51.060;4.228;2023-02-23T02:07:29;76.38;;;33.20;;
5014;SDS011;2526;51.060;4.228;2023-02-23T02:09:56;48.70;;;28.83;;
5014;SDS011;2526;51.060;4.228;2023-02-23T02:12:37;53.30;;;29.70;;
5014;SDS011;2526;51.060;4.228;2023-02-23T02:15:04;53.33;;;28.48;;
5014;SDS011;2526;51.060;4.228;2023-02-23T02:22:58;53.75;;;29.05;;
5014;SDS011;2526;51.060;4.228;2023-02-23T02:31:10;45.85;;;27.08;;
5014;SDS011;2526;51.060;4.228;2023-02-23T02:39:19;50.55;;;29.83;;
5014;SDS011;2526;51.060;4.228;2023-02-23T02:41:56;61.03;;;35.13;;
5014;SDS011;2526;51.060;4.228;2023-02-23T02:50:07;59.47;;;33.45;;
5014;SDS011;2526;51.060;4.228;2023-02-23T02:52:36;48.55;;;28.80;;
5014;SDS011;2526;51.060;4.228;2023-02-23T02:55:06;48.10;;;31.15;;
5014;SDS011;2526;51.060;4.228;2023-02-23T02:57:36;53.78;;;30.08;;
5014;SDS011;2526;51.060;4.228;2023-02-23T03:00:02;61.33;;;32.88;;
5014;SDS011;2526;51.060;4.228;2023-02-23T03:02:47;46.03;;;25.58;;
5014;SDS011;2526;51.060;4.228;2023-02-23T03:05:42;58.42;;;33.50;;
5014;SDS011;2526;51.060;4.228;2023-02-23T03:08:33;48.80;;;26.55;;
5014;SDS011;2526;51.060;4.228;2023-02-23T03:11:19;52.85;;;27.33;;
5014;SDS011;2526;51.060;4.228;2023-02-23T03:14:25;49.00;;;26.73;;
5014;SDS011;2526;51.060;4.228;2023-02-23T03:23:50;45.75;;;28.13;;
5014;SDS011;2526;51.060;4.228;2023-02-23T03:26:10;43.92;;;26.63;;
5014;SDS011;2526;51.060;4.228;2023-02-23T03:29:00;49.70;;;26.23;;
5014;SDS011;2526;51.060;4.228;2023-02-23T03:31:47;50.05;;;27.60;;
5014;SDS011;2526;51.060;4.228;2023-02-23T03:34:34;42.25;;;24.75;;
5014;SDS011;2526;51.060;4.228;2023-02-23T03:40:05;44.63;;;26.85;;
5014;SDS011;2526;51.060;4.228;2023-02-23T03:42:50;51.20;;;30.02;;
5014;SDS011;2526;51.060;4.228;2023-02-23T03:45:36;47.83;;;26.45;;
5014;SDS011;2526;51.060;4.228;2023-02-23T03:48:21;49.55;;;24.65;;
5014;SDS011;2526;51.060;4.228;2023-02-23T03:51:06;57.97;;;26.10;;
5014;SDS011;2526;51.060;4.228;2023-02-23T03:56:42;56.75;;;26.25;;
5014;SDS011;2526;51.060;4.228;2023-02-23T03:59:28;55.53;;;30.60;;
5014;SDS011;2526;51.060;4.228;2023-02-23T04:02:14;46.42;;;29.48;;
5014;SDS011;2526;51.060;4.228;2023-02-23T04:04:59;57.80;;;27.10;;
5014;SDS011;2526;51.060;4.228;2023-02-23T04:07:45;44.75;;;26.58;;
5014;SDS011;2526;51.060;4.228;2023-02-23T04:10:30;48.42;;;23.73;;
5014;SDS011;2526;51.060;4.228;2023-02-23T04:13:19;53.13;;;27.92;;
5014;SDS011;2526;51.060;4.228;2023-02-23T04:18:14;43.55;;;27.05;;
5014;SDS011;2526;51.060;4.228;2023-02-23T04:20:41;41.92;;;25.02;;
5014;SDS011;2526;51.060;4.228;2023-02-23T04:23:06;39.40;;;23.48;;
5014;SDS011;2526;51.060;4.228;2023-02-23T04:25:32;49.80;;;23.92;;
5014;SDS011;2526;51.060;4.228;2023-02-23T04:27:57;43.65;;;24.27;;
5014;SDS011;2526;51.060;4.228;2023-02-23T04:30:23;42.10;;;24.27;;
5014;SDS011;2526;51.060;4.228;2023-02-23T04:32:52;38.67;;;22.85;;
5014;SDS011;2526;51.060;4.228;2023-02-23T04:35:19;42.58;;;21.75;;
5014;SDS011;2526;51.060;4.228;2023-02-23T04:37:44;42.42;;;24.65;;
5014;SDS011;2526;51.060;4.228;2023-02-23T04:40:10;52.97;;;26.38;;
5014;SDS011;2526;51.060;4.228;2023-02-23T04:42:37;43.50;;;24.13;;
5014;SDS011;2526;51.060;4.228;2023-02-23T04:45:02;37.35;;;22.92;;
5014;SDS011;2526;51.060;4.228;2023-02-23T04:47:28;42.10;;;25.25;;
5014;SDS011;2526;51.060;4.228;2023-02-23T04:49:54;50.22;;;26.67;;
5014;SDS011;2526;51.060;4.228;2023-02-23T04:52:19;42.05;;;24.70;;
5014;SDS011;2526;51.060;4.228;2023-02-23T04:54:44;48.78;;;25.48;;
5014;SDS011;2526;51.060;4.228;2023-02-23T04:57:10;37.97;;;20.38;;
5014;SDS011;2526;51.060;4.228;2023-02-23T04:59:35;46.20;;;28.48;;
5014;SDS011;2526;51.060;4.228;2023-02-23T05:02:01;37.50;;;23.77;;
5014;SDS011;2526;51.060;4.228;2023-02-23T05:04:26;41.08;;;21.98;;
5014;SDS011;2526;51.060;4.228;2023-02-23T05:06:52;42.47;;;26.77;;
5014;SDS011;2526;51.060;4.228;2023-02-23T05:09:17;44.83;;;23.48;;
5014;SDS011;2526;51.060;4.228;2023-02-23T05:11:43;43.17;;;25.00;;
5014;SDS011;2526;51.060;4.228;2023-02-23T05:14:08;48.47;;;23.42;;
5014;SDS011;2526;51.060;4.228;2023-02-23T05:16:35;44.30;;;23.67;;
5014;SDS011;2526;51.060;4.228;2023-02-23T05:19:01;41.42;;;24.83;;
5014;SDS011;2526;51.060;4.228;2023-02-23T05:21:26;43.22;;;23.08;;
5014;SDS011;2526;51.060;4.228;2023-02-23T05:23:52;43.85;;;27.17;;
5014;SDS011;2526;51.060;4.228;2023-02-23T05:26:17;41.58;;;23.02;;
5014;SDS011;2526;51.060;4.228;2023-02-23T05:28:43;46.95;;;25.30;;
5014;SDS011;2526;51.060;4.228;2023-02-23T05:31:09;43.63;;;24.35;;
5014;SDS011;2526;51.060;4.228;2023-02-23T05:33:35;50.88;;;26.20;;
5014;SDS011;2526;51.060;4.228;2023-02-23T05:36:07;38.85;;;23.08;;
5014;SDS011;2526;51.060;4.228;2023-02-23T05:38:33;43.08;;;22.90;;
5014;SDS011;2526;51.060;4.228;2023-02-23T05:40:58;41.22;;;23.95;;
5014;SDS011;2526;51.060;4.228;2023-02-23T05:43:28;34.08;;;21.20;;
5014;SDS011;2526;51.060;4.228;2023-02-23T05:45:53;37.60;;;19.30;;
5014;SDS011;2526;51.060;4.228;2023-02-23T05:48:19;32.45;;;20.70;;
5014;SDS011;2526;51.060;4.228;2023-02-23T05:50:44;46.55;;;23.25;;
5014;SDS011;2526;51.060;4.228;2023-02-23T05:53:09;37.75;;;24.02;;
5014;SDS011;2526;51.060;4.228;2023-02-23T05:55:35;52.50;;;28.38;;
5014;SDS011;2526;51.060;4.228;2023-02-23T05:58:01;37.95;;;21.60;;
5014;SDS011;2526;51.060;4.228;2023-02-23T06:00:27;44.28;;;25.27;;
5014;SDS011;2526;51.060;4.228;2023-02-23T06:02:52;46.63;;;25.02;;
5014;SDS011;2526;51.060;4.228;2023-02-23T06:05:18;41.08;;;23.85;;
5014;SDS011;2526;51.060;4.228;2023-02-23T06:07:43;42.05;;;24.90;;
5014;SDS011;2526;51.060;4.228;2023-02-23T06:10:10;51.20;;;26.88;;
5014;SDS011;2526;51.060;4.228;2023-02-23T06:12:36;34.50;;;20.88;;
5014;SDS011;2526;51.060;4.228;2023-02-23T06:15:01;38.72;;;23.88;;
5014;SDS011;2526;51.060;4.228;2023-02-23T06:17:26;35.03;;;22.63;;
5014;SDS011;2526;51.060;4.228;2023-02-23T06:19:52;41.88;;;23.88;;
5014;SDS011;2526;51.060;4.228;2023-02-23T06:22:17;34.58;;;24.48;;
5014;SDS011;2526;51.060;4.228;2023-02-23T06:24:43;46.42;;;23.40;;
5014;SDS011;2526;51.060;4.228;2023-02-23T06:27:09;43.72;;;22.95;;
5014;SDS011;2526;51.060;4.228;2023-02-23T06:29:34;39.78;;;22.45;;
5014;SDS011;2526;51.060;4.228;2023-02-23T06:32:02;41.72;;;25.95;;
5014;SDS011;2526;51.060;4.228;2023-02-23T06:34:27;43.88;;;25.42;;
5014;SDS011;2526;51.060;4.228;2023-02-23T06:36:52;43.25;;;24.33;;
5014;SDS011;2526;51.060;4.228;2023-02-23T06:39:18;38.35;;;22.10;;
5014;SDS011;2526;51.060;4.228;2023-02-23T06:41:43;43.60;;;24.98;;
5014;SDS011;2526;51.060;4.228;2023-02-23T06:44:09;30.77;;;20.45;;
5014;SDS011;2526;51.060;4.228;2023-02-23T06:46:34;39.28;;;22.52;;
5014;SDS011;2526;51.060;4.228;2023-02-23T06:49:00;41.47;;;26.90;;
5014;SDS011;2526;51.060;4.228;2023-02-23T06:51:25;44.42;;;25.42;;
5014;SDS011;2526;51.060;4.228;2023-02-23T06:53:51;46.45;;;23.48;;
5014;SDS011;2526;51.060;4.228;2023-02-23T06:56:17;43.42;;;26.02;;
5014;SDS011;2526;51.060;4.228;2023-02-23T06:58:43;31.73;;;22.63;;
5014;SDS011;2526;51.060;4.228;2023-02-23T07:01:08;43.50;;;26.88;;
5014;SDS011;2526;51.060;4.228;2023-02-23T07:03:37;43.78;;;25.65;;
5014;SDS011;2526;51.060;4.228;2023-02-23T07:06:02;45.97;;;25.98;;
5014;SDS011;2526;51.060;4.228;2023-02-23T07:08:30;44.55;;;24.63;;
5014;SDS011;2526;51.060;4.228;2023-02-23T07:10:56;37.95;;;21.00;;
5014;SDS011;2526;51.060;4.228;2023-02-23T07:13:23;44.85;;;22.73;;
5014;SDS011;2526;51.060;4.228;2023-02-23T07:15:48;48.72;;;24.13;;
5014;SDS011;2526;51.060;4.228;2023-02-23T07:18:13;39.30;;;23.60;;
5014;SDS011;2526;51.060;4.228;2023-02-23T07:20:39;40.30;;;22.48;;
5014;SDS011;2526;51.060;4.228;2023-02-23T07:23:05;36.33;;;23.45;;
5014;SDS011;2526;51.060;4.228;2023-02-23T07:25:30;44.90;;;24.35;;
5014;SDS011;2526;51.060;4.228;2023-02-23T07:27:56;47.10;;;27.52;;
5014;SDS011;2526;51.060;4.228;2023-02-23T07:30:23;50.13;;;24.25;;
5014;SDS011;2526;51.060;4.228;2023-02-23T07:32:49;45.05;;;25.48;;
5014;SDS011;2526;51.060;4.228;2023-02-23T07:35:15;51.63;;;27.33;;
5014;SDS011;2526;51.060;4.228;2023-02-23T07:37:40;55.58;;;27.42;;
5014;SDS011;2526;51.060;4.228;2023-02-23T07:40:06;50.08;;;29.15;;
5014;SDS011;2526;51.060;4.228;2023-02-23T07:42:32;49.95;;;30.55;;
5014;SDS011;2526;51.060;4.228;2023-02-23T07:44:57;57.78;;;33.05;;
5014;SDS011;2526;51.060;4.228;2023-02-23T07:47:23;42.63;;;26.48;;
5014;SDS011;2526;51.060;4.228;2023-02-23T07:49:55;61.00;;;32.47;;
5014;SDS011;2526;51.060;4.228;2023-02-23T07:52:21;59.97;;;33.03;;
5014;SDS011;2526;51.060;4.228;2023-02-23T07:54:46;47.13;;;29.08;;
5014;SDS011;2526;51.060;4.228;2023-02-23T07:57:11;76.07;;;30.40;;
5014;SDS011;2526;51.060;4.228;2023-02-23T07:59:37;52.08;;;29.48;;
5014;SDS011;2526;51.060;4.228;2023-02-23T08:02:03;50.50;;;28.63;;
5014;SDS011;2526;51.060;4.228;2023-02-23T08:04:29;54.60;;;30.45;;
5014;SDS011;2526;51.060;4.228;2023-02-23T08:06:54;50.67;;;29.25;;
5014;SDS011;2526;51.060;4.228;2023-02-23T08:09:20;51.78;;;25.77;;
5014;SDS011;2526;51.060;4.228;2023-02-23T08:11:45;49.72;;;30.48;;
5014;SDS011;2526;51.060;4.228;2023-02-23T08:14:10;47.65;;;29.88;;
5014;SDS011;2526;51.060;4.228;2023-02-23T08:16:37;47.03;;;26.92;;
5014;SDS011;2526;51.060;4.228;2023-02-23T08:19:02;44.63;;;24.52;;
5014;SDS011;2526;51.060;4.228;2023-02-23T08:21:28;55.35;;;27.52;;
5014;SDS011;2526;51.060;4.228;2023-02-23T08:23:54;68.05;;;30.65;;
5014;SDS011;2526;51.060;4.228;2023-02-23T08:26:20;54.53;;;31.08;;
5014;SDS011;2526;51.060;4.228;2023-02-23T08:28:45;58.63;;;30.17;;
5014;SDS011;2526;51.060;4.228;2023-02-23T08:31:12;55.90;;;29.95;;
5014;SDS011;2526;51.060;4.228;2023-02-23T08:33:37;62.58;;;30.55;;
5014;SDS011;2526;51.060;4.228;2023-02-23T08:36:04;59.28;;;31.35;;
5014;SDS011;2526;51.060;4.228;2023-02-23T08:38:30;68.18;;;33.83;;
5014;SDS011;2526;51.060;4.228;2023-02-23T08:40:58;58.10;;;30.90;;
5014;SDS011;2526;51.060;4.228;2023-02-23T08:43:24;61.92;;;32.75;;
5014;SDS011;2526;51.060;4.228;2023-02-23T08:45:49;57.90;;;34.35;;
5014;SDS011;2526;51.060;4.228;2023-02-23T08:48:14;55.45;;;30.52;;
5014;SDS011;2526;51.060;4.228;2023-02-23T08:50:40;66.22;;;34.70;;
5014;SDS011;2526;51.060;4.228;2023-02-23T08:53:05;65.88;;;31.38;;
5014;SDS011;2526;51.060;4.228;2023-02-23T08:55:31;51.92;;;31.45;;
5014;SDS011;2526;51.060;4.228;2023-02-23T08:57:59;58.13;;;35.13;;
5014;SDS011;2526;51.060;4.228;2023-02-23T09:00:25;58.03;;;30.25;;
5014;SDS011;2526;51.060;4.228;2023-02-23T09:02:51;57.20;;;29.65;;
5014;SDS011;2526;51.060;4.228;2023-02-23T09:05:16;62.38;;;29.75;;
5014;SDS011;2526;51.060;4.228;2023-02-23T09:07:42;48.97;;;27.42;;
5014;SDS011;2526;51.060;4.228;2023-02-23T09:10:14;51.03;;;26.25;;
5014;SDS011;2526;51.060;4.228;2023-02-23T09:12:40;54.38;;;31.75;;
5014;SDS011;2526;51.060;4.228;2023-02-23T09:15:06;56.15;;;33.08;;
5014;SDS011;2526;51.060;4.228;2023-02-23T09:17:31;56.22;;;30.13;;
5014;SDS011;2526;51.060;4.228;2023-02-23T09:19:57;62.05;;;30.98;;
5014;SDS011;2526;51.060;4.228;2023-02-23T09:22:22;53.92;;;30.42;;
5014;SDS011;2526;51.060;4.228;2023-02-23T09:24:48;54.65;;;31.98;;
5014;SDS011;2526;51.060;4.228;2023-02-23T09:27:13;64.97;;;33.65;;
5014;SDS011;2526;51.060;4.228;2023-02-23T09:29:39;63.15;;;35.13;;
5014;SDS011;2526;51.060;4.228;2023-02-23T09:32:06;67.32;;;33.50;;
5014;SDS011;2526;51.060;4.228;2023-02-23T09:34:32;69.10;;;36.75;;
5014;SDS011;2526;51.060;4.228;2023-02-23T09:36:57;62.92;;;33.50;;
5014;SDS011;2526;51.060;4.228;2023-02-23T09:39:25;62.50;;;31.10;;
5014;SDS011;2526;51.060;4.228;2023-02-23T09:44:53;78.18;;;42.08;;
5014;SDS011;2526;51.060;4.228;2023-02-23T09:47:44;69.70;;;32.20;;
5014;SDS011;2526;51.060;4.228;2023-02-23T09:50:16;62.33;;;32.78;;
5014;SDS011;2526;51.060;4.228;2023-02-23T09:52:43;66.35;;;34.53;;
5014;SDS011;2526;51.060;4.228;2023-02-23T09:55:09;71.10;;;36.03;;
5014;SDS011;2526;51.060;4.228;2023-02-23T09:57:37;64.53;;;35.65;;
5014;SDS011;2526;51.060;4.228;2023-02-23T10:00:12;77.72;;;37.13;;
5014;SDS011;2526;51.060;4.228;2023-02-23T10:02:51;60.42;;;34.15;;
5014;SDS011;2526;51.060;4.228;2023-02-23T10:05:19;73.40;;;35.55;;
5014;SDS011;2526;51.060;4.228;2023-02-23T10:07:52;66.85;;;38.42;;
5014;SDS011;2526;51.060;4.228;2023-02-23T10:16:13;58.10;;;35.08;;
5014;SDS011;2526;51.060;4.228;2023-02-23T10:18:50;67.78;;;35.80;;
5014;SDS011;2526;51.060;4.228;2023-02-23T10:26:16;58.08;;;33.92;;
5014;SDS011;2526;51.060;4.228;2023-02-23T10:28:41;57.45;;;36.22;;
5014;SDS011;2526;51.060;4.228;2023-02-23T10:33:49;56.97;;;31.73;;
5014;SDS011;2526;51.060;4.228;2023-02-23T10:36:17;57.72;;;34.28;;
5014;SDS011;2526;51.060;4.228;2023-02-23T10:38:44;45.60;;;29.45;;
5014;SDS011;2526;51.060;4.228;2023-02-23T10:41:10;51.45;;;29.00;;
5014;SDS011;2526;51.060;4.228;2023-02-23T10:43:35;57.25;;;27.75;;
5014;SDS011;2526;51.060;4.228;2023-02-23T10:46:01;56.88;;;31.58;;
5014;SDS011;2526;51.060;4.228;2023-02-23T10:48:31;58.15;;;31.08;;
5014;SDS011;2526;51.060;4.228;2023-02-23T10:50:58;61.45;;;32.92;;
5014;SDS011;2526;51.060;4.228;2023-02-23T10:53:31;51.85;;;26.63;;
5014;SDS011;2526;51.060;4.228;2023-02-23T10:56:00;46.07;;;27.00;;
5014;SDS011;2526;51.060;4.228;2023-02-23T10:58:27;53.03;;;30.63;;
5014;SDS011;2526;51.060;4.228;2023-02-23T11:00:54;52.60;;;30.35;;
5014;SDS011;2526;51.060;4.228;2023-02-23T11:03:29;49.10;;;28.08;;
5014;SDS011;2526;51.060;4.228;2023-02-23T11:05:56;53.75;;;32.85;;
5014;SDS011;2526;51.060;4.228;2023-02-23T11:08:23;43.83;;;25.38;;
5014;SDS011;2526;51.060;4.228;2023-02-23T11:13:25;51.03;;;28.50;;
5014;SDS011;2526;51.060;4.228;2023-02-23T11:18:29;52.88;;;30.55;;
5014;SDS011;2526;51.060;4.228;2023-02-23T11:20:55;54.63;;;29.23;;
5014;SDS011;2526;51.060;4.228;2023-02-23T11:23:24;49.70;;;27.30;;
5014;SDS011;2526;51.060;4.228;2023-02-23T11:25:54;51.78;;;26.23;;
5014;SDS011;2526;51.060;4.228;2023-02-23T11:28:21;44.63;;;24.77;;
5014;SDS011;2526;51.060;4.228;2023-02-23T11:30:48;42.75;;;22.38;;
5014;SDS011;2526;51.060;4.228;2023-02-23T11:33:18;50.22;;;27.60;;
5014;SDS011;2526;51.060;4.228;2023-02-23T11:35:44;45.15;;;23.90;;
5014;SDS011;2526;51.060;4.228;2023-02-23T11:38:25;46.00;;;26.58;;
5014;SDS011;2526;51.060;4.228;2023-02-23T11:41:04;41.42;;;25.95;;
5014;SDS011;2526;51.060;4.228;2023-02-23T11:43:29;53.88;;;28.00;;
5014;SDS011;2526;51.060;4.228;2023-02-23T11:45:56;49.00;;;24.33;;
5014;SDS011;2526;51.060;4.228;2023-02-23T11:48:26;35.30;;;22.55;;
5014;SDS011;2526;51.060;4.228;2023-02-23T11:50:53;47.13;;;25.65;;
5014;SDS011;2526;51.060;4.228;2023-02-23T11:53:35;47.38;;;23.88;;
5014;SDS011;2526;51.060;4.228;2023-02-23T11:56:01;36.90;;;22.00;;
5014;SDS011;2526;51.060;4.228;2023-02-23T12:01:10;47.28;;;23.77;;
5014;SDS011;2526;51.060;4.228;2023-02-23T12:06:30;38.95;;;23.30;;
5014;SDS011;2526;51.060;4.228;2023-02-23T12:11:38;42.83;;;20.08;;
5014;SDS011;2526;51.060;4.228;2023-02-23T12:14:24;41.83;;;22.70;;
5014;SDS011;2526;51.060;4.228;2023-02-23T12:16:52;36.10;;;18.20;;
5014;SDS011;2526;51.060;4.228;2023-02-23T12:19:27;31.58;;;19.80;;
5014;SDS011;2526;51.060;4.228;2023-02-23T12:21:57;41.95;;;23.50;;
5014;SDS011;2526;51.060;4.228;2023-02-23T12:29:30;32.58;;;18.95;;
5014;SDS011;2526;51.060;4.228;2023-02-23T12:31:59;33.72;;;20.88;;
5014;SDS011;2526;51.060;4.228;2023-02-23T12:34:29;40.47;;;19.50;;
5014;SDS011;2526;51.060;4.228;2023-02-23T12:36:57;33.15;;;21.20;;
5014;SDS011;2526;51.060;4.228;2023-02-23T12:39:30;36.05;;;21.25;;
5014;SDS011;2526;51.060;4.228;2023-02-23T12:42:06;36.42;;;20.42;;
5014;SDS011;2526;51.060;4.228;2023-02-23T12:44:42;35.00;;;20.00;;
5014;SDS011;2526;51.060;4.228;2023-02-23T12:52:19;33.38;;;19.92;;
5014;SDS011;2526;51.060;4.228;2023-02-23T12:54:45;31.70;;;17.80;;
5014;SDS011;2526;51.060;4.228;2023-02-23T13:05:23;28.38;;;17.10;;
5014;SDS011;2526;51.060;4.228;2023-02-23T13:15:34;27.45;;;17.15;;
5014;SDS011;2526;51.060;4.228;2023-02-23T13:18:18;30.67;;;17.30;;
5014;SDS011;2526;51.060;4.228;2023-02-23T13:20:49;26.80;;;15.52;;
5014;SDS011;2526;51.060;4.228;2023-02-23T13:33:39;28.40;;;15.52;;
5014;SDS011;2526;51.060;4.228;2023-02-23T13:36:05;22.98;;;14.20;;
5014;SDS011;2526;51.060;4.228;2023-02-23T13:41:23;27.00;;;15.90;;
5014;SDS011;2526;51.060;4.228;2023-02-23T13:43:53;26.25;;;17.58;;
5014;SDS011;2526;51.060;4.228;2023-02-23T13:46:38;19.67;;;12.70;;
5014;SDS011;2526;51.060;4.228;2023-02-23T13:54:04;25.27;;;16.65;;
5014;SDS011;2526;51.060;4.228;2023-02-23T13:56:50;24.55;;;13.52;;
5014;SDS011;2526;51.060;4.228;2023-02-23T13:59:21;29.83;;;15.18;;
5014;SDS011;2526;51.060;4.228;2023-02-23T14:01:48;21.63;;;13.60;;
5014;SDS011;2526;51.060;4.228;2023-02-23T14:04:15;25.75;;;14.10;;
5014;SDS011;2526;51.060;4.228;2023-02-23T14:09:30;22.75;;;13.85;;
5014;SDS011;2526;51.060;4.228;2023-02-23T14:22:29;22.27;;;11.73;;
5014;SDS011;2526;51.060;4.228;2023-02-23T14:27:42;21.90;;;8.98;;
5014;SDS011;2526;51.060;4.228;2023-02-23T14:32:38;14.93;;;8.75;;
5014;SDS011;2526;51.060;4.228;2023-02-23T14:35:03;16.20;;;10.55;;
5014;SDS011;2526;51.060;4.228;2023-02-23T14:37:35;16.48;;;8.73;;
5014;SDS011;2526;51.060;4.228;2023-02-23T14:42:30;19.83;;;10.40;;
5014;SDS011;2526;51.060;4.228;2023-02-23T14:44:57;14.63;;;9.80;;
5014;SDS011;2526;51.060;4.228;2023-02-23T14:47:27;13.77;;;9.55;;
5014;SDS011;2526;51.060;4.228;2023-02-23T14:49:56;18.77;;;10.00;;
5014;SDS011;2526;51.060;4.228;2023-02-23T14:52:23;16.42;;;9.73;;
5014;SDS011;2526;51.060;4.228;2023-02-23T14:54:50;14.75;;;10.45;;
5014;SDS011;2526;51.060;4.228;2023-02-23T14:57:21;13.13;;;8.57;;
5014;SDS011;2526;51.060;4.228;2023-02-23T14:59:58;12.00;;;8.13;;
5014;SDS011;2526;51.060;4.228;2023-02-23T15:02:24;13.52;;;7.85;;
5014;SDS011;2526;51.060;4.228;2023-02-23T15:04:50;15.15;;;9.90;;
5014;SDS011;2526;51.060;4.228;2023-02-23T15:07:20;11.23;;;7.70;;
5014;SDS011;2526;51.060;4.228;2023-02-23T15:09:50;15.70;;;9.40;;
5014;SDS011;2526;51.060;4.228;2023-02-23T15:12:20;11.77;;;7.00;;
5014;SDS011;2526;51.060;4.228;2023-02-23T15:14:47;12.45;;;8.35;;
5014;SDS011;2526;51.060;4.228;2023-02-23T15:17:19;13.80;;;7.95;;
5014;SDS011;2526;51.060;4.228;2023-02-23T15:19:47;9.43;;;7.45;;
5014;SDS011;2526;51.060;4.228;2023-02-23T15:22:21;10.02;;;7.05;;
5014;SDS011;2526;51.060;4.228;2023-02-23T15:24:48;9.90;;;6.55;;
5014;SDS011;2526;51.060;4.228;2023-02-23T15:27:15;9.40;;;6.10;;
5014;SDS011;2526;51.060;4.228;2023-02-23T15:29:41;7.05;;;5.45;;
5014;SDS011;2526;51.060;4.228;2023-02-23T15:32:18;8.57;;;6.07;;
5014;SDS011;2526;51.060;4.228;2023-02-23T15:34:45;8.68;;;5.32;;
5014;SDS011;2526;51.060;4.228;2023-02-23T15:39:53;13.52;;;6.43;;
5014;SDS011;2526;51.060;4.228;2023-02-23T15:42:22;17.30;;;6.80;;
5014;SDS011;2526;51.060;4.228;2023-02-23T15:45:01;10.40;;;6.90;;
5014;SDS011;2526;51.060;4.228;2023-02-23T15:47:30;14.02;;;8.55;;
5014;SDS011;2526;51.060;4.228;2023-02-23T15:50:01;9.15;;;6.45;;
5014;SDS011;2526;51.060;4.228;2023-02-23T15:52:29;11.90;;;8.32;;
5014;SDS011;2526;51.060;4.228;2023-02-23T15:55:06;11.75;;;6.60;;
5014;SDS011;2526;51.060;4.228;2023-02-23T15:57:33;13.95;;;8.20;;
5014;SDS011;2526;51.060;4.228;2023-02-23T16:00:10;11.98;;;8.32;;
5014;SDS011;2526;51.060;4.228;2023-02-23T16:02:40;13.63;;;8.10;;
5014;SDS011;2526;51.060;4.228;2023-02-23T16:05:19;9.45;;;6.43;;
5014;SDS011;2526;51.060;4.228;2023-02-23T16:07:45;12.60;;;7.35;;
5014;SDS011;2526;51.060;4.228;2023-02-23T16:10:18;25.30;;;7.47;;
5014;SDS011;2526;51.060;4.228;2023-02-23T16:15:26;12.98;;;7.63;;
5014;SDS011;2526;51.060;4.228;2023-02-23T16:18:01;8.50;;;5.07;;
5014;SDS011;2526;51.060;4.228;2023-02-23T16:20:38;8.68;;;5.95;;
5014;SDS011;2526;51.060;4.228;2023-02-23T16:23:22;10.57;;;7.95;;
5014;SDS011;2526;51.060;4.228;2023-02-23T16:25:54;15.73;;;8.38;;
5014;SDS011;2526;51.060;4.228;2023-02-23T16:28:20;13.73;;;9.65;;
5014;SDS011;2526;51.060;4.228;2023-02-23T16:30:56;13.05;;;7.93;;
5014;SDS011;2526;51.060;4.228;2023-02-23T16:33:23;11.88;;;7.45;;
5014;SDS011;2526;51.060;4.228;2023-02-23T16:35:51;15.45;;;8.15;;
5014;SDS011;2526;51.060;4.228;2023-02-23T16:38:59;9.18;;;6.53;;
5014;SDS011;2526;51.060;4.228;2023-02-23T16:41:08;14.50;;;7.03;;
5014;SDS011;2526;51.060;4.228;2023-02-23T16:43:37;14.65;;;8.63;;
5014;SDS011;2526;51.060;4.228;2023-02-23T16:46:03;10.07;;;6.63;;
5014;SDS011;2526;51.060;4.228;2023-02-23T16:48:28;13.77;;;9.25;;
5014;SDS011;2526;51.060;4.228;2023-02-23T16:50:54;12.10;;;7.78;;
5014;SDS011;2526;51.060;4.228;2023-02-23T16:53:19;14.43;;;9.57;;
5014;SDS011;2526;51.060;4.228;2023-02-23T16:55:51;14.05;;;8.73;;
5014;SDS011;2526;51.060;4.228;2023-02-23T16:58:17;11.30;;;7.50;;
5014;SDS011;2526;51.060;4.228;2023-02-23T17:00:44;11.88;;;7.75;;
5014;SDS011;2526;51.060;4.228;2023-02-23T17:03:18;13.05;;;8.07;;
5014;SDS011;2526;51.060;4.228;2023-02-23T17:05:44;17.60;;;7.82;;
5014;SDS011;2526;51.060;4.228;2023-02-23T17:08:10;16.73;;;9.82;;
5014;SDS011;2526;51.060;4.228;2023-02-23T17:10:35;14.65;;;7.38;;
5014;SDS011;2526;51.060;4.228;2023-02-23T17:13:02;14.57;;;8.63;;
5014;SDS011;2526;51.060;4.228;2023-02-23T17:15:31;16.70;;;8.45;;
5014;SDS011;2526;51.060;4.228;2023-02-23T17:17:58;13.23;;;8.85;;
5014;SDS011;2526;51.060;4.228;2023-02-23T17:20:24;18.17;;;9.55;;
5014;SDS011;2526;51.060;4.228;2023-02-23T17:22:51;18.13;;;9.70;;